createdAt,value
2018-05-13T00:00:43.772Z,0
2018-05-13T00:01:44.449Z,0
2018-05-13T00:02:45.124Z,0
2018-05-13T00:03:45.798Z,0
2018-05-13T00:04:46.476Z,0
2018-05-13T00:05:47.153Z,0
2018-05-13T00:06:47.830Z,0
2018-05-13T00:07:48.507Z,0
2018-05-13T00:08:49.189Z,0
2018-05-13T00:09:49.866Z,0
2018-05-13T00:10:50.549Z,0
2018-05-13T00:11:51.231Z,0
2018-05-13T00:12:51.914Z,0
2018-05-13T00:13:52.588Z,0
2018-05-13T00:14:53.268Z,0
2018-05-13T00:15:53.944Z,0
2018-05-13T00:16:54.619Z,0
2018-05-13T00:17:55.299Z,0
2018-05-13T00:18:55.972Z,0
2018-05-13T00:19:56.645Z,0
2018-05-13T00:20:57.331Z,0
2018-05-13T00:21:58.010Z,0
2018-05-13T00:22:58.687Z,0
2018-05-13T00:23:59.363Z,0
2018-05-13T00:25:00.041Z,0
2018-05-13T00:26:00.730Z,0
2018-05-13T00:27:01.412Z,0
2018-05-13T00:28:02.094Z,0
2018-05-13T00:29:02.769Z,0
2018-05-13T00:30:03.448Z,0
2018-05-13T00:31:04.120Z,0
2018-05-13T00:32:04.810Z,0
2018-05-13T00:33:05.489Z,0
2018-05-13T00:34:06.162Z,0
2018-05-13T00:35:06.835Z,0
2018-05-13T00:36:07.515Z,0
2018-05-13T00:37:08.192Z,0
2018-05-13T00:38:08.864Z,0
2018-05-13T00:39:09.546Z,0
2018-05-13T00:40:10.223Z,0
2018-05-13T00:41:10.900Z,0
2018-05-13T00:42:11.577Z,0
2018-05-13T00:43:12.254Z,0
2018-05-13T00:44:12.931Z,0
2018-05-13T00:45:13.606Z,0
2018-05-13T00:46:14.281Z,0
2018-05-13T00:47:14.956Z,0
2018-05-13T00:48:15.629Z,0
2018-05-13T00:49:16.305Z,0
2018-05-13T00:50:16.982Z,0
2018-05-13T00:51:17.657Z,0
2018-05-13T00:52:18.332Z,0
2018-05-13T00:53:19.010Z,0
2018-05-13T00:54:19.687Z,0
2018-05-13T00:55:20.362Z,0
2018-05-13T00:56:21.037Z,0
2018-05-13T00:57:21.711Z,0
2018-05-13T00:58:22.386Z,0
2018-05-13T00:59:23.059Z,0
2018-05-13T01:00:23.732Z,0
2018-05-13T01:01:24.410Z,0
2018-05-13T01:02:25.088Z,0
2018-05-13T01:03:25.769Z,0
2018-05-13T01:04:26.465Z,0
2018-05-13T01:05:27.131Z,0
2018-05-13T01:06:27.806Z,0
2018-05-13T01:07:28.479Z,0
2018-05-13T01:08:29.154Z,0
2018-05-13T01:09:29.831Z,0
2018-05-13T01:10:30.580Z,0
2018-05-13T01:11:31.183Z,0
2018-05-13T01:12:31.858Z,0
2018-05-13T01:13:32.535Z,0
2018-05-13T01:14:33.213Z,0
2018-05-13T01:15:33.885Z,0
2018-05-13T01:16:34.562Z,0
2018-05-13T01:17:35.238Z,0
2018-05-13T01:18:35.974Z,0
2018-05-13T01:19:36.591Z,0
2018-05-13T01:20:37.262Z,0
2018-05-13T01:21:37.935Z,0
2018-05-13T01:22:38.618Z,0
2018-05-13T01:23:39.293Z,0
2018-05-13T01:24:39.968Z,0
2018-05-13T01:25:40.648Z,0
2018-05-13T01:26:41.325Z,0
2018-05-13T01:27:41.997Z,0
2018-05-13T01:28:42.672Z,0
2018-05-13T01:29:43.348Z,0
2018-05-13T01:30:44.022Z,0
2018-05-13T01:31:44.698Z,0
2018-05-13T01:32:45.373Z,0
2018-05-13T01:33:46.046Z,0
2018-05-13T01:34:46.721Z,0
2018-05-13T01:35:47.399Z,0
2018-05-13T01:36:48.080Z,0
2018-05-13T01:37:48.759Z,0
2018-05-13T01:38:49.436Z,0
2018-05-13T01:39:50.111Z,0
2018-05-13T01:40:50.785Z,0
2018-05-13T01:41:51.462Z,0
2018-05-13T01:42:52.208Z,0
2018-05-13T01:43:52.810Z,0
2018-05-13T01:44:53.488Z,0
2018-05-13T01:45:54.163Z,0
2018-05-13T01:46:54.840Z,0
2018-05-13T01:47:55.518Z,0
2018-05-13T01:48:56.197Z,0
2018-05-13T01:49:56.867Z,0
2018-05-13T01:50:57.549Z,0
2018-05-13T01:51:58.223Z,0
2018-05-13T01:52:58.897Z,0
2018-05-13T01:53:59.571Z,0
2018-05-13T01:55:00.248Z,0
2018-05-13T01:56:00.918Z,0
2018-05-13T01:57:01.592Z,0
2018-05-13T01:58:02.335Z,0
2018-05-13T01:59:02.945Z,0
2018-05-13T02:00:03.621Z,0
2018-05-13T02:01:04.297Z,0
2018-05-13T02:02:04.973Z,0
2018-05-13T02:03:05.653Z,0
2018-05-13T02:04:06.328Z,0
2018-05-13T02:05:07.003Z,0
2018-05-13T02:06:07.677Z,0
2018-05-13T02:07:08.352Z,0
2018-05-13T02:08:09.026Z,0
2018-05-13T02:09:09.699Z,0
2018-05-13T02:10:10.375Z,0
2018-05-13T02:11:11.050Z,0
2018-05-13T02:12:11.726Z,0
2018-05-13T02:13:12.404Z,0
2018-05-13T02:14:13.089Z,0
2018-05-13T02:15:13.765Z,0
2018-05-13T02:16:14.438Z,0
2018-05-13T02:17:15.119Z,0
2018-05-13T02:18:15.790Z,0
2018-05-13T02:19:16.465Z,0
2018-05-13T02:20:17.140Z,0
2018-05-13T02:21:17.816Z,0
2018-05-13T02:22:18.506Z,0
2018-05-13T02:23:19.167Z,0
2018-05-13T02:24:19.843Z,0
2018-05-13T02:25:20.516Z,0
2018-05-13T02:26:21.192Z,0
2018-05-13T02:27:21.866Z,0
2018-05-13T02:28:22.539Z,0
2018-05-13T02:29:23.212Z,0
2018-05-13T02:30:23.889Z,0
2018-05-13T02:31:24.567Z,0
2018-05-13T02:32:25.241Z,0
2018-05-13T02:33:25.916Z,0
2018-05-13T02:34:26.595Z,0
2018-05-13T02:35:27.270Z,0
2018-05-13T02:36:27.949Z,0
2018-05-13T02:37:28.622Z,0
2018-05-13T02:38:29.300Z,0
2018-05-13T02:39:29.974Z,0
2018-05-13T02:40:30.657Z,0
2018-05-13T02:41:31.330Z,0
2018-05-13T02:42:32.003Z,0
2018-05-13T02:43:32.682Z,0
2018-05-13T02:44:33.356Z,0
2018-05-13T02:45:34.037Z,0
2018-05-13T02:46:34.715Z,0
2018-05-13T02:47:35.391Z,0
2018-05-13T02:48:36.070Z,0
2018-05-13T02:49:36.743Z,0
2018-05-13T02:50:37.419Z,0
2018-05-13T02:51:38.094Z,0
2018-05-13T02:52:38.771Z,0
2018-05-13T02:53:39.453Z,0
2018-05-13T02:54:40.123Z,0
2018-05-13T02:55:40.799Z,0
2018-05-13T02:56:41.473Z,0
2018-05-13T02:57:42.146Z,0
2018-05-13T02:58:42.829Z,0
2018-05-13T02:59:43.507Z,0
2018-05-13T03:00:44.184Z,0
2018-05-13T03:01:44.859Z,0
2018-05-13T03:02:45.541Z,0
2018-05-13T03:03:46.219Z,0
2018-05-13T03:04:46.898Z,0
2018-05-13T03:05:47.571Z,0
2018-05-13T03:06:48.262Z,0
2018-05-13T03:07:48.928Z,0
2018-05-13T03:08:49.602Z,0
2018-05-13T03:09:50.281Z,0
2018-05-13T03:10:50.964Z,0
2018-05-13T03:11:51.654Z,0
2018-05-13T03:12:52.326Z,0
2018-05-13T03:13:52.999Z,0
2018-05-13T03:14:53.672Z,0
2018-05-13T03:15:54.354Z,0
2018-05-13T03:16:55.027Z,0
2018-05-13T03:17:55.698Z,0
2018-05-13T03:18:56.392Z,0
2018-05-13T03:19:57.052Z,0
2018-05-13T03:20:57.735Z,0
2018-05-13T03:21:58.411Z,0
2018-05-13T03:22:59.092Z,0
2018-05-13T03:23:59.768Z,0
2018-05-13T03:25:00.441Z,0
2018-05-13T03:26:01.117Z,0
2018-05-13T03:27:01.795Z,0
2018-05-13T03:28:02.469Z,0
2018-05-13T03:29:03.148Z,0
2018-05-13T03:30:03.830Z,0
2018-05-13T03:31:04.501Z,0
2018-05-13T03:32:05.178Z,0
2018-05-13T03:33:05.852Z,0
2018-05-13T03:34:06.537Z,0
2018-05-13T03:35:07.212Z,0
2018-05-13T03:36:07.890Z,0
2018-05-13T03:37:08.567Z,0
2018-05-13T03:38:09.244Z,0
2018-05-13T03:39:09.920Z,0
2018-05-13T03:40:10.593Z,0
2018-05-13T03:41:11.268Z,5
2018-05-13T03:42:11.948Z,5
2018-05-13T03:43:12.617Z,5
2018-05-13T03:44:13.297Z,5
2018-05-13T03:45:13.970Z,5
2018-05-13T03:46:14.649Z,5
2018-05-13T03:47:15.323Z,5
2018-05-13T03:48:16.000Z,5
2018-05-13T03:49:16.678Z,10
2018-05-13T03:50:17.360Z,10
2018-05-13T03:51:18.042Z,10
2018-05-13T03:52:18.715Z,10
2018-05-13T03:53:19.402Z,10
2018-05-13T03:54:20.089Z,10
2018-05-13T03:55:20.769Z,10
2018-05-13T03:56:21.453Z,15
2018-05-13T03:57:22.128Z,15
2018-05-13T03:58:22.860Z,15
2018-05-13T03:59:23.483Z,15
2018-05-13T04:00:24.163Z,15
2018-05-13T04:01:24.842Z,15
2018-05-13T04:02:25.523Z,15
2018-05-13T04:03:26.200Z,20
2018-05-13T04:04:26.877Z,20
2018-05-13T04:05:27.567Z,20
2018-05-13T04:06:28.241Z,20
2018-05-13T04:07:29.004Z,20
2018-05-13T04:08:29.595Z,20
2018-05-13T04:09:30.275Z,25
2018-05-13T04:10:30.953Z,25
2018-05-13T04:11:31.631Z,25
2018-05-13T04:12:32.308Z,25
2018-05-13T04:13:32.984Z,25
2018-05-13T04:14:33.660Z,25
2018-05-13T04:15:34.342Z,30
2018-05-13T04:16:35.016Z,30
2018-05-13T04:17:35.698Z,30
2018-05-13T04:18:36.376Z,30
2018-05-13T04:19:37.049Z,30
2018-05-13T04:20:37.724Z,35
2018-05-13T04:21:38.405Z,35
2018-05-13T04:22:39.082Z,35
2018-05-13T04:23:39.758Z,35
2018-05-13T04:24:40.435Z,35
2018-05-13T04:25:41.111Z,40
2018-05-13T04:26:41.790Z,40
2018-05-13T04:27:42.466Z,40
2018-05-13T04:28:43.144Z,40
2018-05-13T04:29:43.824Z,40
2018-05-13T04:30:44.507Z,45
2018-05-13T04:31:45.184Z,45
2018-05-13T04:32:45.863Z,45
2018-05-13T04:33:46.539Z,45
2018-05-13T04:34:47.221Z,45
2018-05-13T04:35:47.897Z,45
2018-05-13T04:36:48.573Z,45
2018-05-13T04:37:49.253Z,50
2018-05-13T04:38:49.929Z,50
2018-05-13T04:39:50.607Z,50
2018-05-13T04:40:51.284Z,50
2018-05-13T04:41:51.958Z,50
2018-05-13T04:42:52.637Z,50
2018-05-13T04:43:53.317Z,55
2018-05-13T04:44:53.999Z,55
2018-05-13T04:45:54.676Z,55
2018-05-13T04:46:55.357Z,55
2018-05-13T04:47:56.041Z,55
2018-05-13T04:48:56.717Z,55
2018-05-13T04:49:57.396Z,55
2018-05-13T04:50:58.077Z,60
2018-05-13T04:51:58.758Z,60
2018-05-13T04:52:59.435Z,60
2018-05-13T04:54:00.113Z,60
2018-05-13T04:55:00.794Z,60
2018-05-13T04:56:01.478Z,60
2018-05-13T04:57:02.158Z,60
2018-05-13T04:58:02.843Z,65
2018-05-13T04:59:03.522Z,65
2018-05-13T05:00:04.203Z,65
2018-05-13T05:01:04.888Z,65
2018-05-13T05:02:05.566Z,65
2018-05-13T05:03:06.246Z,65
2018-05-13T05:04:06.931Z,65
2018-05-13T05:05:07.614Z,65
2018-05-13T05:06:08.290Z,70
2018-05-13T05:07:08.970Z,70
2018-05-13T05:08:09.645Z,70
2018-05-13T05:09:10.323Z,70
2018-05-13T05:10:11.003Z,70
2018-05-13T05:11:11.693Z,70
2018-05-13T05:12:12.370Z,70
2018-05-13T05:13:13.051Z,70
2018-05-13T05:14:13.732Z,75
2018-05-13T05:15:14.411Z,75
2018-05-13T05:16:15.085Z,75
2018-05-13T05:17:15.765Z,75
2018-05-13T05:18:16.449Z,75
2018-05-13T05:19:17.131Z,75
2018-05-13T05:20:17.812Z,75
2018-05-13T05:21:18.490Z,75
2018-05-13T05:22:19.169Z,75
2018-05-13T05:23:19.851Z,75
2018-05-13T05:24:20.527Z,80
2018-05-13T05:25:21.202Z,80
2018-05-13T05:26:21.879Z,80
2018-05-13T05:27:22.559Z,80
2018-05-13T05:28:23.236Z,80
2018-05-13T05:29:23.922Z,80
2018-05-13T05:30:24.607Z,80
2018-05-13T05:31:25.286Z,80
2018-05-13T05:32:25.970Z,80
2018-05-13T05:33:26.650Z,80
2018-05-13T05:34:27.329Z,85
2018-05-13T05:35:28.012Z,85
2018-05-13T05:36:28.690Z,85
2018-05-13T05:37:29.369Z,85
2018-05-13T05:38:30.045Z,85
2018-05-13T05:39:30.729Z,85
2018-05-13T05:40:31.412Z,85
2018-05-13T05:41:32.093Z,85
2018-05-13T05:42:32.775Z,85
2018-05-13T05:43:33.456Z,85
2018-05-13T05:44:34.130Z,85
2018-05-13T05:45:34.818Z,90
2018-05-13T05:46:35.501Z,90
2018-05-13T05:47:36.177Z,90
2018-05-13T05:48:36.857Z,90
2018-05-13T05:49:37.537Z,90
2018-05-13T05:50:38.225Z,90
2018-05-13T05:51:38.907Z,90
2018-05-13T05:52:39.589Z,90
2018-05-13T05:53:40.266Z,90
2018-05-13T05:54:40.947Z,90
2018-05-13T05:55:41.622Z,90
2018-05-13T05:56:42.311Z,90
2018-05-13T05:57:42.987Z,90
2018-05-13T05:58:43.667Z,90
2018-05-13T05:59:44.349Z,90
2018-05-13T06:00:45.028Z,95
2018-05-13T06:01:45.706Z,95
2018-05-13T06:02:46.382Z,95
2018-05-13T06:03:47.077Z,95
2018-05-13T06:04:47.737Z,95
2018-05-13T06:05:48.419Z,95
2018-05-13T06:06:49.096Z,95
2018-05-13T06:07:49.774Z,95
2018-05-13T06:08:50.469Z,95
2018-05-13T06:09:51.147Z,95
2018-05-13T06:10:51.824Z,95
2018-05-13T06:11:52.501Z,95
2018-05-13T06:12:53.180Z,95
2018-05-13T06:13:53.853Z,95
2018-05-13T06:14:54.554Z,95
2018-05-13T06:15:55.241Z,95
2018-05-13T06:16:55.919Z,95
2018-05-13T06:17:56.593Z,100
2018-05-13T06:18:57.279Z,100
2018-05-13T06:19:57.956Z,100
2018-05-13T06:20:58.642Z,100
2018-05-13T06:21:59.321Z,100
2018-05-13T06:23:00.011Z,100
2018-05-13T06:24:00.692Z,100
2018-05-13T06:25:01.376Z,100
2018-05-13T06:26:02.050Z,100
2018-05-13T06:27:02.730Z,100
2018-05-13T06:28:03.415Z,100
2018-05-13T06:29:04.112Z,100
2018-05-13T06:30:04.795Z,100
2018-05-13T06:31:05.479Z,100
2018-05-13T06:32:06.161Z,100
2018-05-13T06:33:06.842Z,100
2018-05-13T06:34:07.519Z,100
2018-05-13T06:35:08.201Z,100
2018-05-13T06:36:08.880Z,100
2018-05-13T06:37:09.563Z,105
2018-05-13T06:38:10.251Z,105
2018-05-13T06:39:10.929Z,105
2018-05-13T06:40:11.608Z,105
2018-05-13T06:41:12.288Z,105
2018-05-13T06:42:12.967Z,105
2018-05-13T06:43:13.646Z,105
2018-05-13T06:44:14.328Z,105
2018-05-13T06:45:15.062Z,105
2018-05-13T06:46:15.686Z,105
2018-05-13T06:47:16.366Z,105
2018-05-13T06:48:17.051Z,105
2018-05-13T06:49:17.733Z,105
2018-05-13T06:50:18.415Z,105
2018-05-13T06:51:19.221Z,105
2018-05-13T06:52:19.785Z,105
2018-05-13T06:53:20.470Z,105
2018-05-13T06:54:21.149Z,105
2018-05-13T06:55:21.833Z,105
2018-05-13T06:56:22.522Z,105
2018-05-13T06:57:23.258Z,105
2018-05-13T06:58:23.862Z,105
2018-05-13T06:59:24.560Z,110
2018-05-13T07:00:25.238Z,110
2018-05-13T07:01:25.917Z,110
2018-05-13T07:02:26.598Z,110
2018-05-13T07:03:27.281Z,110
2018-05-13T07:04:27.962Z,110
2018-05-13T07:05:28.638Z,110
2018-05-13T07:06:29.318Z,110
2018-05-13T07:07:29.998Z,110
2018-05-13T07:08:30.682Z,110
2018-05-13T07:09:31.361Z,110
2018-05-13T07:10:32.062Z,110
2018-05-13T07:11:32.746Z,110
2018-05-13T07:12:33.426Z,110
2018-05-13T07:13:34.112Z,110
2018-05-13T07:14:34.791Z,110
2018-05-13T07:15:35.473Z,110
2018-05-13T07:16:36.159Z,110
2018-05-13T07:17:36.840Z,110
2018-05-13T07:18:37.522Z,110
2018-05-13T07:19:38.201Z,110
2018-05-13T07:20:38.883Z,110
2018-05-13T07:21:39.564Z,115
2018-05-13T07:22:40.241Z,115
2018-05-13T07:23:40.927Z,115
2018-05-13T07:24:41.602Z,115
2018-05-13T07:25:42.281Z,115
2018-05-13T07:26:42.970Z,115
2018-05-13T07:27:43.647Z,115
2018-05-13T07:28:44.329Z,115
2018-05-13T07:29:45.029Z,115
2018-05-13T07:30:45.693Z,115
2018-05-13T07:31:46.381Z,115
2018-05-13T07:32:47.062Z,115
2018-05-13T07:33:47.742Z,115
2018-05-13T07:34:48.422Z,115
2018-05-13T07:35:49.104Z,115
2018-05-13T07:36:49.789Z,115
2018-05-13T07:37:50.466Z,115
2018-05-13T07:38:51.149Z,115
2018-05-13T07:39:51.833Z,115
2018-05-13T07:40:52.512Z,115
2018-05-13T07:41:53.143Z,115
2018-05-13T07:42:53.873Z,120
2018-05-13T07:43:54.558Z,120
2018-05-13T07:44:55.241Z,120
2018-05-13T07:45:55.921Z,120
2018-05-13T07:46:56.596Z,120
2018-05-13T07:47:57.288Z,120
2018-05-13T07:48:57.966Z,120
2018-05-13T07:49:58.651Z,120
2018-05-13T07:50:59.387Z,120
2018-05-13T07:52:00.019Z,120
2018-05-13T07:53:00.712Z,120
2018-05-13T07:54:01.397Z,120
2018-05-13T07:55:02.080Z,120
2018-05-13T07:56:02.761Z,120
2018-05-13T07:57:03.444Z,120
2018-05-13T07:58:04.145Z,120
2018-05-13T07:59:04.828Z,125
2018-05-13T08:00:05.506Z,125
2018-05-13T08:01:06.192Z,125
2018-05-13T08:02:06.881Z,125
2018-05-13T08:03:07.563Z,125
2018-05-13T08:04:08.246Z,125
2018-05-13T08:05:08.926Z,125
2018-05-13T08:06:09.628Z,125
2018-05-13T08:07:10.294Z,125
2018-05-13T08:08:10.975Z,125
2018-05-13T08:09:11.664Z,125
2018-05-13T08:10:12.343Z,125
2018-05-13T08:11:13.023Z,125
2018-05-13T08:12:13.703Z,125
2018-05-13T08:13:14.383Z,125
2018-05-13T08:14:15.068Z,125
2018-05-13T08:15:15.748Z,130
2018-05-13T08:16:16.429Z,130
2018-05-13T08:17:17.117Z,130
2018-05-13T08:18:17.793Z,130
2018-05-13T08:19:18.487Z,130
2018-05-13T08:20:19.186Z,130
2018-05-13T08:21:19.849Z,125
2018-05-13T08:22:20.535Z,130
2018-05-13T08:23:21.212Z,130
2018-05-13T08:24:21.905Z,130
2018-05-13T08:25:22.584Z,130
2018-05-13T08:26:23.269Z,135
2018-05-13T08:27:23.952Z,135
2018-05-13T08:28:24.636Z,135
2018-05-13T08:29:25.373Z,135
2018-05-13T08:30:26.019Z,135
2018-05-13T08:31:26.705Z,135
2018-05-13T08:32:27.393Z,135
2018-05-13T08:33:28.093Z,135
2018-05-13T08:34:28.777Z,135
2018-05-13T08:35:29.462Z,135
2018-05-13T08:36:30.148Z,135
2018-05-13T08:37:30.831Z,135
2018-05-13T08:38:31.515Z,135
2018-05-13T08:39:32.203Z,140
2018-05-13T08:40:32.891Z,140
2018-05-13T08:41:33.571Z,140
2018-05-13T08:42:34.262Z,140
2018-05-13T08:43:34.954Z,135
2018-05-13T08:44:35.631Z,100
2018-05-13T08:45:36.318Z,105
2018-05-13T08:46:36.999Z,110
2018-05-13T08:47:37.683Z,115
2018-05-13T08:48:38.453Z,130
2018-05-13T08:49:39.055Z,130
2018-05-13T08:50:39.735Z,125
2018-05-13T08:51:40.418Z,125
2018-05-13T08:52:41.105Z,120
2018-05-13T08:53:41.767Z,130
2018-05-13T08:54:42.459Z,135
2018-05-13T08:55:43.141Z,135
2018-05-13T08:56:43.815Z,135
2018-05-13T08:57:44.504Z,135
2018-05-13T08:58:45.193Z,140
2018-05-13T08:59:45.966Z,140
2018-05-13T09:00:46.554Z,140
2018-05-13T09:01:47.236Z,140
2018-05-13T09:02:47.924Z,140
2018-05-13T09:03:48.611Z,145
2018-05-13T09:04:49.291Z,145
2018-05-13T09:05:49.974Z,145
2018-05-13T09:06:50.656Z,150
2018-05-13T09:07:51.352Z,145
2018-05-13T09:08:52.033Z,145
2018-05-13T09:09:52.717Z,145
2018-05-13T09:10:53.399Z,145
2018-05-13T09:11:54.091Z,145
2018-05-13T09:12:54.780Z,145
2018-05-13T09:13:55.468Z,140
2018-05-13T09:14:56.147Z,145
2018-05-13T09:15:56.838Z,150
2018-05-13T09:16:57.516Z,150
2018-05-13T09:17:58.208Z,150
2018-05-13T09:18:58.893Z,150
2018-05-13T09:19:59.577Z,155
2018-05-13T09:21:00.254Z,160
2018-05-13T09:22:00.939Z,155
2018-05-13T09:23:01.624Z,155
2018-05-13T09:24:02.303Z,160
2018-05-13T09:25:02.992Z,150
2018-05-13T09:26:03.673Z,155
2018-05-13T09:27:04.368Z,160
2018-05-13T09:28:05.057Z,155
2018-05-13T09:29:05.739Z,155
2018-05-13T09:30:06.422Z,155
2018-05-13T09:31:07.108Z,155
2018-05-13T09:32:07.789Z,160
2018-05-13T09:33:08.564Z,160
2018-05-13T09:34:09.163Z,160
2018-05-13T09:35:09.847Z,160
2018-05-13T09:36:10.536Z,160
2018-05-13T09:37:11.225Z,160
2018-05-13T09:38:11.907Z,160
2018-05-13T09:39:12.590Z,160
2018-05-13T09:40:13.279Z,160
2018-05-13T09:41:13.955Z,160
2018-05-13T09:42:14.636Z,165
2018-05-13T09:43:15.317Z,165
2018-05-13T09:44:15.999Z,165
2018-05-13T09:45:16.681Z,165
2018-05-13T09:46:17.372Z,165
2018-05-13T09:47:18.057Z,165
2018-05-13T09:48:18.749Z,165
2018-05-13T09:49:19.427Z,165
2018-05-13T09:50:20.121Z,165
2018-05-13T09:51:20.876Z,170
2018-05-13T09:52:21.495Z,170
2018-05-13T09:53:22.185Z,170
2018-05-13T09:54:22.869Z,170
2018-05-13T09:55:23.557Z,175
2018-05-13T09:56:24.282Z,175
2018-05-13T09:57:25.135Z,175
2018-05-13T09:58:25.821Z,180
2018-05-13T09:59:26.505Z,180
2018-05-13T10:00:27.201Z,180
2018-05-13T10:01:27.890Z,185
2018-05-13T10:02:28.610Z,185
2018-05-13T10:03:29.264Z,185
2018-05-13T10:04:29.946Z,185
2018-05-13T10:05:30.630Z,180
2018-05-13T10:06:31.320Z,170
2018-05-13T10:07:31.998Z,175
2018-05-13T10:08:32.680Z,175
2018-05-13T10:09:33.381Z,180
2018-05-13T10:10:34.057Z,185
2018-05-13T10:11:34.738Z,190
2018-05-13T10:12:35.425Z,200
2018-05-13T10:13:36.108Z,205
2018-05-13T10:14:36.791Z,205
2018-05-13T10:15:37.477Z,205
2018-05-13T10:16:38.168Z,205
2018-05-13T10:17:38.852Z,210
2018-05-13T10:18:39.544Z,210
2018-05-13T10:19:40.229Z,205
2018-05-13T10:20:40.916Z,205
2018-05-13T10:21:41.604Z,205
2018-05-13T10:22:42.285Z,205
2018-05-13T10:23:42.976Z,205
2018-05-13T10:24:43.659Z,205
2018-05-13T10:25:44.347Z,205
2018-05-13T10:26:45.033Z,210
2018-05-13T10:27:45.713Z,210
2018-05-13T10:28:46.403Z,210
2018-05-13T10:29:47.085Z,210
2018-05-13T10:30:47.768Z,210
2018-05-13T10:31:48.451Z,215
2018-05-13T10:32:49.135Z,220
2018-05-13T10:33:49.819Z,225
2018-05-13T10:34:50.503Z,225
2018-05-13T10:35:51.191Z,230
2018-05-13T10:36:51.876Z,235
2018-05-13T10:37:52.560Z,235
2018-05-13T10:38:53.245Z,235
2018-05-13T10:39:53.928Z,235
2018-05-13T10:40:54.619Z,235
2018-05-13T10:41:55.311Z,235
2018-05-13T10:42:56.005Z,240
2018-05-13T10:43:56.693Z,240
2018-05-13T10:44:57.374Z,240
2018-05-13T10:45:58.059Z,240
2018-05-13T10:46:58.740Z,240
2018-05-13T10:47:59.432Z,240
2018-05-13T10:49:00.115Z,240
2018-05-13T10:50:00.796Z,240
2018-05-13T10:51:01.494Z,245
2018-05-13T10:52:02.172Z,245
2018-05-13T10:53:02.859Z,245
2018-05-13T10:54:03.540Z,245
2018-05-13T10:55:04.226Z,245
2018-05-13T10:56:04.909Z,245
2018-05-13T10:57:05.595Z,245
2018-05-13T10:58:06.277Z,235
2018-05-13T10:59:06.966Z,250
2018-05-13T11:00:07.649Z,245
2018-05-13T11:01:08.340Z,260
2018-05-13T11:02:09.020Z,260
2018-05-13T11:03:09.711Z,255
2018-05-13T11:04:10.403Z,250
2018-05-13T11:05:11.094Z,250
2018-05-13T11:06:11.774Z,250
2018-05-13T11:07:12.460Z,250
2018-05-13T11:08:13.142Z,255
2018-05-13T11:09:13.847Z,255
2018-05-13T11:10:14.581Z,260
2018-05-13T11:11:15.224Z,260
2018-05-13T11:12:15.923Z,260
2018-05-13T11:13:16.613Z,265
2018-05-13T11:14:17.299Z,265
2018-05-13T11:15:17.980Z,265
2018-05-13T11:16:18.669Z,265
2018-05-13T11:17:19.355Z,270
2018-05-13T11:18:20.039Z,270
2018-05-13T11:19:20.731Z,270
2018-05-13T11:20:21.415Z,275
2018-05-13T11:21:22.098Z,275
2018-05-13T11:22:22.784Z,280
2018-05-13T11:23:23.467Z,285
2018-05-13T11:24:24.150Z,290
2018-05-13T11:25:24.832Z,295
2018-05-13T11:26:25.516Z,295
2018-05-13T11:27:26.200Z,290
2018-05-13T11:28:26.886Z,290
2018-05-13T11:29:27.569Z,295
2018-05-13T11:30:28.249Z,300
2018-05-13T11:31:28.933Z,300
2018-05-13T11:32:29.623Z,305
2018-05-13T11:33:30.309Z,310
2018-05-13T11:34:30.993Z,315
2018-05-13T11:35:31.737Z,320
2018-05-13T11:36:32.371Z,320
2018-05-13T11:37:33.053Z,325
2018-05-13T11:38:33.746Z,330
2018-05-13T11:39:34.432Z,340
2018-05-13T11:40:35.120Z,335
2018-05-13T11:41:35.804Z,340
2018-05-13T11:42:36.485Z,345
2018-05-13T11:43:37.171Z,345
2018-05-13T11:44:37.854Z,350
2018-05-13T11:45:38.543Z,350
2018-05-13T11:46:39.320Z,355
2018-05-13T11:47:39.915Z,360
2018-05-13T11:48:40.596Z,360
2018-05-13T11:49:41.285Z,360
2018-05-13T11:50:41.970Z,370
2018-05-13T11:51:42.652Z,370
2018-05-13T11:52:43.334Z,370
2018-05-13T11:53:44.024Z,380
2018-05-13T11:54:44.707Z,380
2018-05-13T11:55:45.389Z,380
2018-05-13T11:56:46.073Z,380
2018-05-13T11:57:46.764Z,385
2018-05-13T11:58:47.452Z,385
2018-05-13T11:59:48.136Z,385
2018-05-13T12:00:48.821Z,390
2018-05-13T12:01:49.504Z,385
2018-05-13T12:02:50.187Z,390
2018-05-13T12:03:50.874Z,390
2018-05-13T12:04:51.577Z,390
2018-05-13T12:05:52.256Z,400
2018-05-13T12:06:52.951Z,405
2018-05-13T12:07:53.663Z,410
2018-05-13T12:08:54.357Z,410
2018-05-13T12:09:55.043Z,415
2018-05-13T12:10:55.729Z,415
2018-05-13T12:11:56.416Z,430
2018-05-13T12:12:57.101Z,430
2018-05-13T12:13:57.786Z,435
2018-05-13T12:14:58.469Z,425
2018-05-13T12:15:59.160Z,425
2018-05-13T12:16:59.841Z,425
2018-05-13T12:18:00.543Z,430
2018-05-13T12:19:01.238Z,435
2018-05-13T12:20:01.931Z,440
2018-05-13T12:21:02.675Z,445
2018-05-13T12:22:03.314Z,450
2018-05-13T12:23:04.003Z,455
2018-05-13T12:24:04.697Z,440
2018-05-13T12:25:05.389Z,435
2018-05-13T12:26:06.087Z,420
2018-05-13T12:27:06.781Z,435
2018-05-13T12:28:07.470Z,440
2018-05-13T12:29:08.158Z,445
2018-05-13T12:30:08.846Z,455
2018-05-13T12:31:09.541Z,465
2018-05-13T12:32:10.229Z,470
2018-05-13T12:33:10.922Z,480
2018-05-13T12:34:11.616Z,475
2018-05-13T12:35:12.305Z,470
2018-05-13T12:36:12.999Z,475
2018-05-13T12:37:13.695Z,480
2018-05-13T12:38:14.385Z,490
2018-05-13T12:39:15.072Z,490
2018-05-13T12:40:15.759Z,505
2018-05-13T12:41:16.451Z,520
2018-05-13T12:42:17.136Z,535
2018-05-13T12:43:17.824Z,540
2018-05-13T12:44:18.516Z,540
2018-05-13T12:45:19.210Z,555
2018-05-13T12:46:19.897Z,560
2018-05-13T12:47:20.590Z,545
2018-05-13T12:48:21.280Z,540
2018-05-13T12:49:21.967Z,580
2018-05-13T12:50:22.662Z,615
2018-05-13T12:51:23.357Z,615
2018-05-13T12:52:24.048Z,615
2018-05-13T12:53:24.733Z,630
2018-05-13T12:54:25.424Z,640
2018-05-13T12:55:26.108Z,640
2018-05-13T12:56:26.795Z,635
2018-05-13T12:57:27.487Z,630
2018-05-13T12:58:28.200Z,635
2018-05-13T12:59:28.870Z,615
2018-05-13T13:00:29.557Z,600
2018-05-13T13:01:30.267Z,575
2018-05-13T13:02:30.964Z,545
2018-05-13T13:03:31.646Z,545
2018-05-13T13:04:32.342Z,550
2018-05-13T13:05:33.033Z,555
2018-05-13T13:06:33.724Z,560
2018-05-13T13:07:34.446Z,550
2018-05-13T13:08:35.108Z,555
2018-05-13T13:09:35.800Z,540
2018-05-13T13:10:36.497Z,545
2018-05-13T13:11:37.191Z,540
2018-05-13T13:12:37.889Z,545
2018-05-13T13:13:38.585Z,555
2018-05-13T13:14:39.275Z,565
2018-05-13T13:15:39.963Z,565
2018-05-13T13:16:40.655Z,570
2018-05-13T13:17:41.347Z,570
2018-05-13T13:18:42.036Z,575
2018-05-13T13:19:42.729Z,580
2018-05-13T13:20:43.421Z,580
2018-05-13T13:21:44.117Z,575
2018-05-13T13:22:44.809Z,575
2018-05-13T13:23:45.495Z,580
2018-05-13T13:24:46.193Z,585
2018-05-13T13:25:46.880Z,590
2018-05-13T13:26:47.569Z,625
2018-05-13T13:27:48.267Z,635
2018-05-13T13:28:48.953Z,675
2018-05-13T13:29:49.645Z,1475
2018-05-13T13:30:50.348Z,2170
2018-05-13T13:31:51.034Z,3165
2018-05-13T13:32:51.739Z,3210
2018-05-13T13:33:52.429Z,2640
2018-05-13T13:34:53.123Z,2635
2018-05-13T13:35:53.819Z,2880
2018-05-13T13:36:54.513Z,3040
2018-05-13T13:37:55.201Z,2675
2018-05-13T13:38:55.908Z,2835
2018-05-13T13:39:56.601Z,2470
2018-05-13T13:40:57.297Z,3245
2018-05-13T13:41:57.997Z,3185
2018-05-13T13:42:58.688Z,3325
2018-05-13T13:43:59.385Z,3335
2018-05-13T13:45:00.086Z,3195
2018-05-13T13:46:00.786Z,2635
2018-05-13T13:47:01.493Z,1080
2018-05-13T13:48:02.189Z,1665
2018-05-13T13:49:02.884Z,685
2018-05-13T13:50:03.577Z,635
2018-05-13T13:51:04.272Z,785
2018-05-13T13:52:04.972Z,1020
2018-05-13T13:53:05.665Z,1155
2018-05-13T13:54:06.360Z,1385
2018-05-13T13:55:07.058Z,1200
2018-05-13T13:56:07.751Z,1700
2018-05-13T13:57:08.452Z,2365
2018-05-13T13:58:09.142Z,2520
2018-05-13T13:59:09.831Z,845
2018-05-13T14:00:10.531Z,645
2018-05-13T14:01:11.230Z,1290
2018-05-13T14:02:11.935Z,545
2018-05-13T14:03:12.636Z,1350
2018-05-13T14:04:13.324Z,1065
2018-05-13T14:05:14.015Z,420
2018-05-13T14:06:14.707Z,425
2018-05-13T14:07:15.400Z,410
2018-05-13T14:08:16.104Z,1525
2018-05-13T14:09:16.813Z,450
2018-05-13T14:10:17.510Z,385
2018-05-13T14:11:18.207Z,390
2018-05-13T14:12:18.911Z,460
2018-05-13T14:13:19.603Z,2045
2018-05-13T14:14:20.301Z,2130
2018-05-13T14:15:21.001Z,2055